CheckWX is a tool to help pilots better visualize weather data.  It is not intended as a substitute for an official pre-flight weather briefing.

15:09:06 UTC

KDTW TAF
Detroit Metropolitan Wayne County Airport
Detroit, Michigan, USA
KDTW 171412Z 1714/1818 24007KT P6SM BKN015 FM171530 26009KT P6SM BKN025 FM171700 26010KT P6SM SCT040 BKN250 FM171900 24011KT P6SM BKN060 FM180400 21004KT P6SM OVC040 FM181200 22007KT P6SM OVC050

Aug-17@
14:00 UTC

Aug-17 @ 14:00 UTC

Aug-17@
15:30 UTC

Aug-17 @ 15:30 UTC

KDTW 171412Z 1714/1818 24007KT P6SM BKN015
Wind
  • 240° at 7 KTS
Cloud Levels
  • Broken at 1,500' AGL

Aug-17@
15:30 UTC

Aug-17 @ 15:30 UTC

Aug-17@
17:00 UTC

Aug-17 @ 17:00 UTC

FM171530 26009KT P6SM BKN025

From

From Standard forecast or significant change

Wind
  • 260° at 9 KTS
Cloud Levels
  • Broken at 2,500' AGL

Aug-17@
17:00 UTC

Aug-17 @ 17:00 UTC

Aug-17@
19:00 UTC

Aug-17 @ 19:00 UTC

FM171700 26010KT P6SM SCT040 BKN250

From

From Standard forecast or significant change

Wind
  • 260° at 10 KTS
Cloud Levels
  • Scattered at 4,000' AGL
  • Broken at 25,000' AGL

Aug-17@
19:00 UTC

Aug-17 @ 19:00 UTC

Aug-18@
04:00 UTC

Aug-18 @ 04:00 UTC

FM171900 24011KT P6SM BKN060

From

From Standard forecast or significant change

Wind
  • 240° at 11 KTS
Cloud Levels
  • Broken at 6,000' AGL

Aug-18@
04:00 UTC

Aug-18 @ 04:00 UTC

Aug-18@
12:00 UTC

Aug-18 @ 12:00 UTC

FM180400 21004KT P6SM OVC040

From

From Standard forecast or significant change

Wind
  • 210° at 4 KTS
Cloud Levels
  • Overcast at 4,000' AGL

Aug-18@
12:00 UTC

Aug-18 @ 12:00 UTC

Aug-18@
18:00 UTC

Aug-18 @ 18:00 UTC

FM181200 22007KT P6SM OVC050

From

From Standard forecast or significant change

Wind
  • 220° at 7 KTS
Cloud Levels
  • Overcast at 5,000' AGL